Time;durP1;ratioP1;P1;durP2;ratioP2;P2;SDS_P1;SDS_P2;PMS_P1;PMS_P2;Temp;Humidity;BMP_temperature;BMP_pressure;BME280_temperature;BME280_humidity;BME280_pressure;Samples;Min_cycle;Max_cycle;Signal;HPM_P1;HPM_P2
2022/12/19 00:01:16;;;;;;;34.25;15.07;;;0.90;67.50;;;;;;2346121;57;21526;-45
2022/12/19 00:03:44;;;;;;;36.35;16.77;;;0.90;67.50;;;;;;2345925;57;21092;-48
2022/12/19 00:06:12;;;;;;;34.40;15.80;;;0.90;67.50;;;;;;2345854;57;21609;-46
2022/12/19 00:08:40;;;;;;;33.67;15.55;;;0.90;67.30;;;;;;2345895;57;21648;-49
2022/12/19 00:11:09;;;;;;;38.45;15.02;;;1.00;67.30;;;;;;2345680;57;21533;-47
2022/12/19 00:13:36;;;;;;;35.40;15.82;;;1.00;67.30;;;;;;2347223;57;21613;-48
2022/12/19 00:16:05;;;;;;;35.55;16.08;;;1.00;67.20;;;;;;2345738;57;21497;-47
2022/12/19 00:18:32;;;;;;;33.60;15.32;;;1.00;67.00;;;;;;2347336;57;21093;-46
2022/12/19 00:21:01;;;;;;;34.75;16.48;;;1.00;67.00;;;;;;2594480;53;21025;-50
2022/12/19 00:23:30;;;;;;;35.78;15.98;;;1.00;67.10;;;;;;2594171;53;21577;-47
2022/12/19 00:26:07;;;;;;;34.00;16.37;;;1.00;67.00;;;;;;2346965;57;21512;-48
2022/12/19 00:28:34;;;;;;;37.83;16.42;;;1.00;67.00;;;;;;2345677;57;21164;-46
2022/12/19 00:31:02;;;;;;;39.00;16.90;;;1.00;67.00;;;;;;2345010;57;21133;-46
2022/12/19 00:33:29;;;;;;;35.30;15.85;;;1.00;66.80;;;;;;2344505;57;21545;-48
2022/12/19 00:35:58;;;;;;;40.22;16.45;;;1.00;66.80;;;;;;2345958;57;21065;-47
2022/12/19 00:38:25;;;;;;;36.25;15.48;;;1.00;66.80;;;;;;2345632;57;21161;-47
2022/12/19 00:40:52;;;;;;;38.75;16.37;;;1.00;66.70;;;;;;2346387;57;21680;-48
2022/12/19 00:43:20;;;;;;;37.38;15.63;;;1.00;66.70;;;;;;2345970;57;21054;-49
2022/12/19 00:45:47;;;;;;;36.17;16.83;;;1.00;66.70;;;;;;2346310;57;21058;-48
2022/12/19 00:48:14;;;;;;;40.85;15.68;;;1.00;66.60;;;;;;2346265;57;21088;-48
2022/12/19 00:50:41;;;;;;;34.55;15.48;;;1.00;66.50;;;;;;2344166;57;21069;-48
2022/12/19 00:53:08;;;;;;;32.35;16.67;;;1.00;66.60;;;;;;2345646;57;21041;-46
2022/12/19 00:55:38;;;;;;;33.38;14.82;;;0.90;66.60;;;;;;2346037;57;21045;-49
2022/12/19 00:58:05;;;;;;;39.35;17.30;;;0.90;66.60;;;;;;2345887;57;21057;-47
2022/12/19 01:00:32;;;;;;;36.75;16.35;;;1.00;66.70;;;;;;2345880;57;21046;-46
2022/12/19 01:02:59;;;;;;;39.45;15.30;;;0.90;66.60;;;;;;2345740;57;21101;-46
2022/12/19 01:05:26;;;;;;;32.15;15.38;;;1.00;66.60;;;;;;2345489;57;21640;-48
2022/12/19 01:07:54;;;;;;;32.38;14.75;;;1.00;66.70;;;;;;2345311;57;21522;-47
2022/12/19 01:10:21;;;;;;;38.97;16.00;;;1.00;66.70;;;;;;2346204;57;21057;-48
2022/12/19 01:12:48;;;;;;;33.85;15.10;;;1.00;66.70;;;;;;2346038;57;21127;-46
2022/12/19 01:15:18;;;;;;;33.72;14.10;;;1.00;66.60;;;;;;2346155;57;21050;-50
2022/12/19 01:17:46;;;;;;;29.77;13.90;;;1.00;66.60;;;;;;2346911;57;21069;-46
2022/12/19 01:20:16;;;;;;;31.95;13.88;;;1.00;66.70;;;;;;2346823;57;21061;-50
2022/12/19 01:22:44;;;;;;;37.15;16.65;;;1.00;66.70;;;;;;2345165;57;21518;-48
2022/12/19 01:25:11;;;;;;;40.55;15.95;;;1.00;66.60;;;;;;2345412;57;21549;-47
2022/12/19 01:27:38;;;;;;;35.90;15.65;;;1.00;66.70;;;;;;2346074;57;21041;-47
2022/12/19 01:30:08;;;;;;;34.15;16.37;;;1.00;66.80;;;;;;2344839;57;21042;-48
2022/12/19 01:32:36;;;;;;;38.17;15.93;;;1.00;66.70;;;;;;2592522;53;22248;-51
2022/12/19 01:35:04;;;;;;;35.28;15.35;;;1.00;66.70;;;;;;2346087;57;21124;-48
2022/12/19 01:37:31;;;;;;;33.28;14.75;;;1.00;66.70;;;;;;2346145;57;21569;-48
2022/12/19 01:39:58;;;;;;;36.40;15.88;;;1.00;66.70;;;;;;2346598;57;21094;-48
2022/12/19 01:42:25;;;;;;;34.63;16.12;;;1.00;66.80;;;;;;2345897;57;21112;-46
2022/12/19 01:45:27;;;;;;;32.88;13.98;;;1.10;66.80;;;;;;2345930;56;21038;-47
2022/12/19 01:47:56;;;;;;;35.17;15.70;;;1.10;66.70;;;;;;2345653;57;22100;-50
2022/12/19 01:53:01;;;;;;;36.17;16.65;;;1.10;66.50;;;;;;2326865;57;22089;-46
2022/12/19 01:55:28;;;;;;;34.92;15.77;;;1.10;66.50;;;;;;2318249;58;21924;-47
2022/12/19 01:57:58;;;;;;;30.50;14.27;;;1.10;66.60;;;;;;2317296;58;21188;-45
2022/12/19 02:00:26;;;;;;;35.85;15.77;;;1.10;66.60;;;;;;2318657;58;21572;-46
2022/12/19 02:02:57;;;;;;;33.92;15.65;;;1.10;66.50;;;;;;2318185;58;21020;-51
2022/12/19 02:05:25;;;;;;;37.63;16.30;;;1.10;66.50;;;;;;2317991;58;21564;-52
2022/12/19 02:07:52;;;;;;;32.80;15.47;;;1.20;66.50;;;;;;2318196;58;21029;-51
2022/12/19 02:10:20;;;;;;;39.90;16.58;;;1.20;66.50;;;;;;2318548;58;21553;-49
2022/12/19 02:12:47;;;;;;;31.42;14.85;;;1.10;66.30;;;;;;2316995;58;21056;-48
2022/12/19 02:15:16;;;;;;;40.60;16.60;;;1.20;66.30;;;;;;2317262;58;21057;-46
2022/12/19 02:17:56;;;;;;;30.67;14.63;;;1.20;66.50;;;;;;2316885;58;21540;-50
2022/12/19 02:20:44;;;;;;;30.98;14.10;;;1.20;66.30;;;;;;2316675;58;21599;-47
2022/12/19 02:23:48;;;;;;;33.55;15.20;;;1.20;66.40;;;;;;2316797;58;21647;-49
2022/12/19 02:26:43;;;;;;;32.70;15.27;;;1.20;66.30;;;;;;2316688;58;21556;-51
2022/12/19 02:30:02;;;;;;;30.67;14.52;;;1.20;66.20;;;;;;2318324;58;21089;-49
2022/12/19 02:32:34;;;;;;;34.85;14.15;;;1.20;66.20;;;;;;2317493;58;21044;-49
2022/12/19 02:38:29;;;;;;;30.35;14.60;;;1.20;66.30;;;;;;2315181;58;21322;-49
2022/12/19 02:41:01;;;;;;;34.30;14.80;;;1.20;66.30;;;;;;2315941;58;21548;-45
2022/12/19 02:43:31;;;;;;;35.92;14.50;;;1.10;66.40;;;;;;2317140;58;21556;-48
2022/12/19 02:46:00;;;;;;;29.75;15.18;;;1.20;66.60;;;;;;2317372;58;21102;-47
2022/12/19 02:48:28;;;;;;;28.30;14.27;;;1.20;66.70;;;;;;2317085;58;21509;-50
2022/12/19 02:50:55;;;;;;;29.45;14.57;;;1.20;66.70;;;;;;2559479;54;21565;-50
2022/12/19 02:53:22;;;;;;;33.50;16.17;;;1.20;66.60;;;;;;2318590;58;21032;-51
2022/12/19 02:56:03;;;;;;;29.83;15.23;;;1.20;66.60;;;;;;2317975;58;21033;-47
2022/12/19 02:58:52;;;;;;;31.20;15.00;;;1.30;66.70;;;;;;2317536;58;21521;-46
2022/12/19 03:01:32;;;;;;;31.60;14.63;;;1.30;66.70;;;;;;2318460;58;21092;-49
2022/12/19 03:04:08;;;;;;;32.33;14.98;;;1.30;66.70;;;;;;2316332;58;21176;-51
2022/12/19 03:06:44;;;;;;;39.45;16.52;;;1.30;66.80;;;;;;2316559;58;21549;-49
2022/12/19 03:09:23;;;;;;;32.13;14.57;;;1.30;66.80;;;;;;2315439;58;21544;-48
2022/12/19 03:11:56;;;;;;;31.87;14.25;;;1.40;66.90;;;;;;2315868;58;21577;-47
2022/12/19 03:14:25;;;;;;;29.92;15.48;;;1.40;67.10;;;;;;2315418;58;21615;-48
2022/12/19 03:16:53;;;;;;;30.92;14.05;;;1.40;67.10;;;;;;2316575;58;21560;-46
2022/12/19 03:19:21;;;;;;;33.38;15.60;;;1.50;67.30;;;;;;2317186;58;21164;-48
2022/12/19 03:21:49;;;;;;;32.10;13.98;;;1.50;67.30;;;;;;2317289;58;21044;-51
2022/12/19 03:24:18;;;;;;;34.92;14.77;;;1.50;67.30;;;;;;2316586;58;21116;-48
2022/12/19 03:26:50;;;;;;;31.62;14.40;;;1.50;67.50;;;;;;2315423;58;22612;-48
2022/12/19 03:29:24;;;;;;;32.80;15.45;;;1.50;67.60;;;;;;2316539;58;21580;-47
2022/12/19 03:31:52;;;;;;;33.15;15.10;;;1.50;67.80;;;;;;2315714;58;21052;-48
2022/12/19 03:34:30;;;;;;;31.95;14.63;;;1.50;67.90;;;;;;2316422;58;21545;-46
2022/12/19 03:37:02;;;;;;;34.25;14.35;;;1.50;68.10;;;;;;2315872;58;21161;-46
2022/12/19 03:39:31;;;;;;;33.15;14.32;;;1.60;68.20;;;;;;2316481;58;21163;-48
2022/12/19 03:44:46;;;;;;;30.65;15.07;;;1.60;68.40;;;;;;2557888;54;20909;-50
2022/12/19 03:47:17;;;;;;;33.05;14.98;;;1.60;68.50;;;;;;2316775;58;21572;-49
2022/12/19 03:49:45;;;;;;;33.65;16.05;;;1.60;68.50;;;;;;2317324;58;21078;-50
2022/12/19 03:52:22;;;;;;;34.35;15.40;;;1.70;68.70;;;;;;2315981;58;21608;-45
2022/12/19 03:54:55;;;;;;;32.58;15.20;;;1.70;68.80;;;;;;2316015;58;21045;-47
2022/12/19 03:57:25;;;;;;;;;;;1.70;68.90;;;;;;2319830;58;21144;-50
2022/12/19 03:59:58;;;;;;;31.23;16.20;;;1.80;69.00;;;;;;2316217;58;20718;-50
2022/12/19 04:02:25;;;;;;;;;;;1.70;68.60;;;;;;2319689;58;21738;-48
2022/12/19 04:04:57;;;;;;;30.37;15.23;;;1.80;68.80;;;;;;2312156;58;20083;-49
2022/12/19 04:07:25;;;;;;;29.10;14.67;;;1.70;69.30;;;;;;2316630;58;21521;-50
2022/12/19 04:09:55;;;;;;;31.02;15.20;;;1.70;68.90;;;;;;2317113;58;21096;-48
2022/12/19 04:12:29;;;;;;;34.38;15.75;;;1.70;69.10;;;;;;2316942;58;21572;-47
2022/12/19 04:14:57;;;;;;;32.95;15.35;;;1.70;69.20;;;;;;2315896;58;21586;-49
2022/12/19 04:17:33;;;;;;;32.72;15.30;;;1.70;69.20;;;;;;2316617;58;21569;-46
2022/12/19 04:20:04;;;;;;;36.40;15.85;;;1.80;70.10;;;;;;2315907;58;21541;-48
2022/12/19 04:22:37;;;;;;;34.55;15.68;;;1.80;69.30;;;;;;2315266;58;21052;-50
2022/12/19 04:25:10;;;;;;;32.15;15.43;;;1.80;69.40;;;;;;2316116;58;21604;-48
2022/12/19 04:27:40;;;;;;;35.40;15.35;;;1.80;69.40;;;;;;2316343;58;21109;-46
2022/12/19 04:30:11;;;;;;;35.05;14.57;;;1.80;69.40;;;;;;2317157;58;21017;-48
2022/12/19 04:32:41;;;;;;;31.33;14.63;;;1.80;69.50;;;;;;2317548;58;21601;-48
2022/12/19 04:35:09;;;;;;;29.45;14.18;;;1.70;69.40;;;;;;2315809;58;21588;-46
2022/12/19 04:37:36;;;;;;;36.78;16.70;;;1.80;69.50;;;;;;2375017;52;21078;-57
2022/12/19 04:40:07;;;;;;;35.95;14.68;;;1.70;69.60;;;;;;2389401;56;21212;-57
2022/12/19 04:42:34;;;;;;;33.03;14.30;;;1.80;69.70;;;;;;2391096;56;21010;-58
2022/12/19 04:45:01;;;;;;;35.70;16.00;;;1.80;69.70;;;;;;2389079;56;21854;-58
2022/12/19 04:47:28;;;;;;;37.38;16.12;;;1.80;69.80;;;;;;2388544;56;21677;-58
2022/12/19 04:49:55;;;;;;;33.78;15.90;;;1.80;70.60;;;;;;2402387;52;21093;-58
2022/12/19 04:52:23;;;;;;;33.33;14.77;;;1.80;69.80;;;;;;2388589;56;21093;-58
2022/12/19 04:54:50;;;;;;;35.55;16.55;;;1.80;69.90;;;;;;2388150;56;21034;-58
2022/12/19 04:57:17;;;;;;;29.83;15.05;;;1.80;69.90;;;;;;2426937;52;21019;-55
2022/12/19 04:59:44;;;;;;;33.50;15.05;;;1.80;70.10;;;;;;2388845;56;21073;-57
2022/12/19 05:02:11;;;;;;;31.20;15.07;;;1.80;70.10;;;;;;2389638;56;21032;-53
2022/12/19 05:04:38;;;;;;;30.48;14.27;;;1.80;70.10;;;;;;2389480;56;21534;-57
2022/12/19 05:07:05;;;;;;;31.27;14.70;;;1.80;70.10;;;;;;2389027;56;21019;-57
2022/12/19 05:12:09;;;;;;;31.98;17.45;;;1.80;70.20;;;;;;2334557;57;27772;-57
2022/12/19 05:14:36;;;;;;;31.33;15.80;;;1.70;72.10;;;;;;2345389;57;21109;-55
2022/12/19 05:17:03;;;;;;;32.28;14.38;;;1.80;71.90;;;;;;2354269;56;21051;-56
2022/12/19 05:19:31;;;;;;;28.67;14.18;;;1.90;71.20;;;;;;2374697;56;21602;-58
2022/12/19 05:21:58;;;;;;;31.65;14.30;;;2.00;70.90;;;;;;2373827;56;21064;-57
2022/12/19 05:24:25;;;;;;;32.45;15.35;;;2.00;70.70;;;;;;2374286;56;21539;-59
2022/12/19 05:26:52;;;;;;;27.80;13.73;;;2.00;70.60;;;;;;2373799;56;21078;-59
2022/12/19 05:29:19;;;;;;;30.73;14.60;;;2.00;70.60;;;;;;2373586;56;21225;-58
2022/12/19 05:31:47;;;;;;;30.60;14.68;;;2.00;70.60;;;;;;2373709;56;21040;-59
2022/12/19 05:34:14;;;;;;;30.60;15.25;;;2.00;70.60;;;;;;2597540;52;21100;-58
2022/12/19 05:36:41;;;;;;;28.58;14.65;;;2.00;70.80;;;;;;2449919;52;21056;-59
2022/12/19 05:39:08;;;;;;;29.92;14.80;;;2.10;70.90;;;;;;2374636;56;21119;-58
2022/12/19 05:41:35;;;;;;;29.42;14.18;;;2.00;70.80;;;;;;2374327;56;21095;-56
2022/12/19 05:44:02;;;;;;;32.25;14.40;;;2.10;71.00;;;;;;2373761;56;21120;-58
2022/12/19 05:46:30;;;;;;;37.13;16.00;;;2.10;71.10;;;;;;2374481;56;21035;-57
2022/12/19 05:48:58;;;;;;;27.30;13.60;;;2.10;71.00;;;;;;2374427;56;21107;-59
2022/12/19 05:51:25;;;;;;;30.60;14.32;;;2.20;71.20;;;;;;2375186;56;21047;-57
2022/12/19 05:53:52;;;;;;;33.75;14.23;;;2.20;71.20;;;;;;2374643;56;21114;-57
2022/12/19 05:56:21;;;;;;;29.75;14.32;;;2.20;71.20;;;;;;2373606;56;21111;-57
2022/12/19 05:58:49;;;;;;;33.03;14.65;;;2.20;71.70;;;;;;2373293;56;21039;-54
2022/12/19 06:01:19;;;;;;;32.75;15.73;;;2.20;71.30;;;;;;2374215;56;21520;-55
2022/12/19 06:03:47;;;;;;;32.88;15.65;;;2.20;71.30;;;;;;2373866;56;21623;-55
2022/12/19 06:06:17;;;;;;;30.62;14.30;;;2.20;71.40;;;;;;2373378;56;21543;-54
2022/12/19 06:08:44;;;;;;;30.75;14.63;;;2.30;71.50;;;;;;2374298;56;21055;-57
2022/12/19 06:11:13;;;;;;;30.70;15.07;;;2.20;71.40;;;;;;2373998;56;21044;-58
2022/12/19 06:13:40;;;;;;;33.40;15.20;;;2.20;71.60;;;;;;2373991;56;21099;-56
2022/12/19 06:16:11;;;;;;;31.75;15.00;;;2.20;71.70;;;;;;2627038;52;21123;-56
2022/12/19 06:18:38;;;;;;;34.30;15.60;;;2.20;71.80;;;;;;2375930;56;21023;-58
2022/12/19 06:21:09;;;;;;;30.42;14.75;;;2.20;71.90;;;;;;2375655;56;21647;-55
2022/12/19 06:23:36;;;;;;;31.27;14.87;;;2.20;72.00;;;;;;2374800;56;21035;-56
2022/12/19 06:26:05;;;;;;;32.97;15.20;;;2.30;72.00;;;;;;2373832;56;21676;-56
2022/12/19 06:28:32;;;;;;;36.15;15.13;;;2.30;72.00;;;;;;2373379;56;21662;-58
2022/12/19 06:31:01;;;;;;;27.37;13.68;;;2.30;72.00;;;;;;2373334;56;21060;-55
2022/12/19 06:33:29;;;;;;;27.30;13.73;;;2.40;72.10;;;;;;2372110;56;21547;-54
2022/12/19 06:36:00;;;;;;;29.02;13.80;;;2.40;72.10;;;;;;2373224;56;21630;-58
2022/12/19 06:38:29;;;;;;;30.67;13.62;;;2.40;72.10;;;;;;2373885;56;22060;-56
2022/12/19 06:43:41;;;;;;;29.85;14.20;;;2.40;72.20;;;;;;2374452;52;20992;-55
2022/12/19 06:46:09;;;;;;;27.70;13.60;;;2.40;72.30;;;;;;2373679;56;21126;-58
2022/12/19 06:48:36;;;;;;;26.20;13.75;;;2.40;72.50;;;;;;2373198;56;21527;-56
2022/12/19 06:51:04;;;;;;;30.17;14.15;;;2.40;73.40;;;;;;2373803;56;21143;-57
2022/12/19 06:53:31;;;;;;;31.65;15.23;;;2.50;72.70;;;;;;2373706;56;21123;-54
2022/12/19 06:55:59;;;;;;;28.48;14.27;;;2.50;72.70;;;;;;2373607;56;21056;-58
2022/12/19 06:58:26;;;;;;;28.50;13.80;;;2.50;72.70;;;;;;2373481;56;21602;-55
2022/12/19 07:00:55;;;;;;;30.58;13.98;;;2.60;72.80;;;;;;2373646;56;21052;-58
2022/12/19 07:03:26;;;;;;;31.27;14.38;;;2.60;72.80;;;;;;2374601;56;21583;-55
2022/12/19 07:05:53;;;;;;;27.13;14.38;;;2.60;72.70;;;;;;2374600;56;21019;-56
2022/12/19 07:08:20;;;;;;;28.85;14.77;;;2.60;72.70;;;;;;2374885;56;21055;-57
2022/12/19 07:10:47;;;;;;;25.73;13.00;;;2.60;72.80;;;;;;2374748;56;21024;-54
2022/12/19 07:13:14;;;;;;;26.90;13.25;;;2.70;73.00;;;;;;2374825;56;21071;-56
2022/12/19 07:15:42;;;;;;;27.55;13.88;;;2.70;73.00;;;;;;2374438;56;21035;-53
2022/12/19 07:18:09;;;;;;;27.17;13.30;;;2.70;73.10;;;;;;2373620;56;21540;-59
2022/12/19 07:20:38;;;;;;;29.25;13.93;;;2.80;73.30;;;;;;2373578;56;21127;-58
2022/12/19 07:23:06;;;;;;;31.30;13.68;;;2.80;73.30;;;;;;2373128;56;21095;-56
2022/12/19 07:25:34;;;;;;;31.05;13.98;;;2.80;73.40;;;;;;2373604;56;21027;-57
2022/12/19 07:28:01;;;;;;;28.52;15.05;;;2.90;73.50;;;;;;2373269;56;21044;-57
2022/12/19 07:30:28;;;;;;;28.95;14.02;;;2.80;73.50;;;;;;2373987;56;21511;-58
2022/12/19 07:32:55;;;;;;;27.95;15.27;;;2.90;73.60;;;;;;2496406;52;21051;-57
2022/12/19 07:35:23;;;;;;;28.55;14.07;;;2.90;73.60;;;;;;2374180;56;21040;-56
2022/12/19 07:40:27;;;;;;;30.55;13.65;;;3.00;73.60;;;;;;2355206;57;22058;-56
2022/12/19 07:42:54;;;;;;;28.10;12.15;;;3.00;73.50;;;;;;2346898;57;21553;-59
2022/12/19 07:45:21;;;;;;;25.48;12.95;;;3.00;74.30;;;;;;2345519;57;21124;-57
2022/12/19 07:47:48;;;;;;;26.95;13.80;;;3.00;73.60;;;;;;2362670;56;21040;-57
2022/12/19 07:50:15;;;;;;;28.50;13.70;;;3.00;73.60;;;;;;2374440;56;21596;-57
2022/12/19 07:52:44;;;;;;;29.33;14.02;;;3.10;73.60;;;;;;2374331;56;21565;-56
2022/12/19 07:55:12;;;;;;;25.92;13.02;;;3.10;73.60;;;;;;2374834;56;21088;-56
2022/12/19 07:57:40;;;;;;;22.70;12.88;;;3.10;73.70;;;;;;2375574;56;21171;-58
2022/12/19 08:00:09;;;;;;;28.98;13.13;;;3.10;73.80;;;;;;2375656;56;21039;-58
2022/12/19 08:05:13;;;;;;;31.40;14.95;;;3.20;73.80;;;;;;2355343;57;22331;-58
2022/12/19 08:07:40;;;;;;;27.23;13.68;;;3.20;73.80;;;;;;2345719;57;21042;-56
2022/12/19 08:10:11;;;;;;;28.08;13.60;;;3.20;73.90;;;;;;2344821;57;21129;-58
2022/12/19 08:12:38;;;;;;;27.48;14.27;;;3.20;73.90;;;;;;2344886;57;21042;-52
2022/12/19 08:15:07;;;;;;;30.23;15.02;;;3.30;74.10;;;;;;2344588;57;21174;-54
2022/12/19 08:17:34;;;;;;;28.35;14.10;;;3.30;73.70;;;;;;2343224;57;21533;-54
2022/12/19 08:20:01;;;;;;;27.75;13.93;;;3.30;74.40;;;;;;2343582;57;21041;-57
2022/12/19 08:22:30;;;;;;;26.77;14.30;;;3.30;74.50;;;;;;2399309;53;21105;-57
2022/12/19 08:24:57;;;;;;;25.70;13.75;;;3.40;74.70;;;;;;2344565;57;21565;-54
2022/12/19 08:27:25;;;;;;;28.70;15.18;;;3.40;74.60;;;;;;2343877;57;21093;-55
2022/12/19 08:29:52;;;;;;;31.95;14.60;;;3.40;74.70;;;;;;2344616;57;21537;-57
2022/12/19 08:32:20;;;;;;;28.10;14.10;;;3.50;74.90;;;;;;2344506;57;22172;-56
2022/12/19 08:34:47;;;;;;;30.92;14.75;;;3.50;74.90;;;;;;2344859;57;21596;-57
2022/12/19 08:37:14;;;;;;;29.42;14.40;;;3.50;75.20;;;;;;2344278;57;21128;-57
2022/12/19 08:39:42;;;;;;;27.33;13.57;;;3.50;76.10;;;;;;2345154;57;21510;-58
2022/12/19 08:42:09;;;;;;;31.98;14.65;;;3.50;75.40;;;;;;2345046;57;21054;-58
2022/12/19 08:44:36;;;;;;;27.90;14.45;;;3.50;75.60;;;;;;2344668;57;21640;-59
2022/12/19 08:47:03;;;;;;;34.25;15.55;;;3.50;75.80;;;;;;2344625;57;21038;-57
2022/12/19 08:49:30;;;;;;;32.10;14.77;;;3.50;76.10;;;;;;2408027;53;21644;-57
2022/12/19 08:51:57;;;;;;;26.90;14.18;;;3.60;76.20;;;;;;2345243;57;21042;-56
2022/12/19 08:54:25;;;;;;;29.52;14.45;;;3.60;76.40;;;;;;2344762;57;21597;-56
2022/12/19 08:56:53;;;;;;;29.33;14.77;;;3.60;76.60;;;;;;2346464;57;21071;-57
2022/12/19 08:59:20;;;;;;;28.60;15.00;;;3.60;76.70;;;;;;2345113;57;21834;-56
2022/12/19 09:01:47;;;;;;;31.20;14.32;;;3.60;77.00;;;;;;2344867;57;21109;-54
2022/12/19 09:04:15;;;;;;;31.33;15.40;;;3.60;77.00;;;;;;2344625;57;21602;-59
2022/12/19 09:06:42;;;;;;;32.15;14.87;;;3.70;77.20;;;;;;2383238;53;22081;-56
2022/12/19 09:09:09;;;;;;;29.98;15.75;;;3.70;77.60;;;;;;2345247;57;21033;-58
2022/12/19 09:11:36;;;;;;;26.45;13.82;;;3.70;77.40;;;;;;2345003;57;21030;-56
2022/12/19 09:14:04;;;;;;;31.17;15.88;;;3.70;77.40;;;;;;2345095;57;21042;-58
2022/12/19 09:16:31;;;;;;;29.70;15.82;;;3.80;77.50;;;;;;2345140;57;21109;-58
2022/12/19 09:18:58;;;;;;;32.55;15.10;;;3.80;77.60;;;;;;2345005;57;21086;-54
2022/12/19 09:21:28;;;;;;;26.85;14.63;;;3.80;77.60;;;;;;2347964;53;21082;-58
2022/12/19 09:23:56;;;;;;;28.95;16.25;;;3.80;77.70;;;;;;2343446;57;21058;-59
2022/12/19 09:26:25;;;;;;;32.88;16.10;;;3.80;77.80;;;;;;2344290;57;21692;-54
2022/12/19 09:28:53;;;;;;;30.67;14.05;;;3.90;77.90;;;;;;2343722;57;21117;-59
2022/12/19 09:31:24;;;;;;;28.50;13.57;;;3.90;77.90;;;;;;2344378;57;21574;-56
2022/12/19 09:33:51;;;;;;;28.75;15.93;;;3.90;77.90;;;;;;2344272;57;21093;-58
2022/12/19 09:36:21;;;;;;;32.58;16.12;;;4.00;78.70;;;;;;2344020;57;21125;-58
2022/12/19 09:38:50;;;;;;;26.17;14.60;;;4.00;78.00;;;;;;2345337;57;21010;-59
2022/12/19 09:41:54;;;;;;;29.00;14.93;;;4.00;78.10;;;;;;2345614;57;21010;-58
2022/12/19 09:44:27;;;;;;;;;;;4.00;78.20;;;;;;2239247;57;21066;-59
2022/12/19 09:46:57;;;;;;;27.37;14.02;;;4.10;77.90;;;;;;2345643;57;20075;-53
2022/12/19 09:49:26;;;;;;;32.72;14.63;;;4.10;77.60;;;;;;2344858;57;21102;-54
2022/12/19 09:51:59;;;;;;;33.75;15.30;;;4.10;77.90;;;;;;2344054;57;21084;-52
2022/12/19 09:57:15;;;;;;;30.73;14.68;;;4.10;78.50;;;;;;2346127;57;22147;-50
2022/12/19 09:59:46;;;;;;;32.22;14.82;;;4.10;78.70;;;;;;2346124;57;21538;-49
2022/12/19 10:02:25;;;;;;;27.30;13.70;;;4.10;78.90;;;;;;2346000;57;21053;-56
2022/12/19 10:05:01;;;;;;;29.23;15.18;;;4.10;79.00;;;;;;2346815;57;21065;-49
2022/12/19 10:07:29;;;;;;;26.83;13.38;;;4.10;79.00;;;;;;2345982;57;21117;-51
2022/12/19 10:09:56;;;;;;;27.13;13.40;;;4.20;79.00;;;;;;2346000;57;21561;-50
2022/12/19 10:12:46;;;;;;;32.65;15.15;;;4.20;79.10;;;;;;2430552;53;21654;-53
2022/12/19 10:15:20;;;;;;;23.65;13.60;;;4.20;79.40;;;;;;2346483;57;21509;-50
2022/12/19 10:18:04;;;;;;;29.60;15.02;;;4.20;79.40;;;;;;2346466;57;21522;-52
2022/12/19 10:20:37;;;;;;;27.08;14.25;;;4.20;79.20;;;;;;2346211;57;21133;-56
2022/12/19 10:23:23;;;;;;;25.17;12.52;;;4.20;79.30;;;;;;2346300;57;21041;-55
2022/12/19 10:26:03;;;;;;;27.75;13.85;;;4.30;79.40;;;;;;2345978;57;21049;-61
2022/12/19 10:28:49;;;;;;;25.73;12.88;;;4.30;79.50;;;;;;2346560;57;21879;-51
2022/12/19 10:31:20;;;;;;;26.27;13.23;;;4.30;79.60;;;;;;2348072;57;21030;-56
2022/12/19 10:33:54;;;;;;;23.52;13.00;;;4.30;79.70;;;;;;2347698;57;21514;-52
2022/12/19 10:36:23;;;;;;;29.35;14.55;;;4.30;79.90;;;;;;2347581;57;21597;-52
2022/12/19 10:38:56;;;;;;;38.70;19.73;;;4.40;79.90;;;;;;2346142;57;21074;-53
2022/12/19 10:41:27;;;;;;;27.20;14.63;;;4.40;80.00;;;;;;2345252;57;21085;-51
2022/12/19 10:44:01;;;;;;;26.27;14.02;;;4.50;79.90;;;;;;2345802;57;21694;-53
2022/12/19 10:46:40;;;;;;;24.95;13.65;;;4.50;80.70;;;;;;2353118;53;22088;-51
2022/12/19 10:49:13;;;;;;;42.67;21.77;;;4.50;79.90;;;;;;2369295;53;21643;-49
2022/12/19 10:51:40;;;;;;;;;;;4.50;79.90;;;;;;2348734;57;21124;-54
2022/12/19 10:54:07;;;;;;;26.87;14.65;;;4.60;79.70;;;;;;2345362;57;20374;-51
2022/12/19 10:56:35;;;;;;;24.25;13.35;;;4.60;79.30;;;;;;2345397;57;21608;-53
2022/12/19 10:59:02;;;;;;;22.48;12.77;;;4.60;79.60;;;;;;2346661;57;21529;-51
2022/12/19 11:01:33;;;;;;;27.25;13.82;;;4.60;79.90;;;;;;2346070;57;21156;-54
2022/12/19 11:07:20;;;;;;;24.92;13.68;;;4.70;80.10;;;;;;2362289;56;22117;-51
2022/12/19 11:09:47;;;;;;;24.55;12.27;;;4.70;79.90;;;;;;2386611;52;21318;-49
2022/12/19 11:12:17;;;;;;;20.75;12.48;;;4.70;80.00;;;;;;2373524;56;21026;-48
2022/12/19 11:14:50;;;;;;;24.73;13.77;;;4.70;80.00;;;;;;2373569;56;21105;-50
2022/12/19 11:17:37;;;;;;;24.42;13.23;;;4.70;80.00;;;;;;2373751;56;21065;-50
2022/12/19 11:20:18;;;;;;;24.20;12.85;;;4.80;80.10;;;;;;2373969;56;21098;-47
2022/12/19 11:22:52;;;;;;;21.67;12.70;;;4.80;79.90;;;;;;2375065;56;21542;-52
2022/12/19 11:25:21;;;;;;;23.38;13.45;;;4.80;79.90;;;;;;2375238;56;21458;-51
2022/12/19 11:27:48;;;;;;;27.42;14.40;;;4.80;80.00;;;;;;2374434;56;21039;-48
2022/12/19 11:30:22;;;;;;;26.55;14.18;;;4.90;80.10;;;;;;2375172;56;21011;-51
2022/12/19 11:33:07;;;;;;;24.58;13.70;;;4.90;80.20;;;;;;2374931;56;21523;-48
2022/12/19 11:35:46;;;;;;;24.45;13.02;;;4.90;80.20;;;;;;2372815;56;21575;-47
2022/12/19 11:38:18;;;;;;;22.15;12.63;;;4.90;80.20;;;;;;2373157;56;21121;-48
2022/12/19 11:40:48;;;;;;;25.23;12.65;;;5.00;80.30;;;;;;2373897;56;21613;-48
2022/12/19 11:43:23;;;;;;;21.50;12.73;;;5.00;80.20;;;;;;2390292;52;21575;-51
2022/12/19 11:45:59;;;;;;;26.15;12.95;;;5.00;80.30;;;;;;2373292;56;21620;-48
2022/12/19 11:48:37;;;;;;;23.80;12.37;;;5.10;80.30;;;;;;2373596;56;21555;-48
2022/12/19 11:51:13;;;;;;;22.02;12.63;;;5.10;80.40;;;;;;2373975;56;21522;-47
2022/12/19 11:53:51;;;;;;;20.67;12.05;;;5.10;80.30;;;;;;2373960;56;21614;-51
2022/12/19 11:56:22;;;;;;;21.62;11.40;;;5.20;80.40;;;;;;2373498;56;21043;-49
2022/12/19 11:58:54;;;;;;;19.20;11.10;;;5.20;80.30;;;;;;2372722;56;21711;-50
2022/12/19 12:01:40;;;;;;;19.17;10.95;;;5.20;80.20;;;;;;2414253;52;21038;-49
2022/12/19 12:04:32;;;;;;;23.17;11.95;;;5.20;80.20;;;;;;2373354;56;21687;-48
2022/12/19 12:06:59;;;;;;;24.17;11.88;;;5.20;80.30;;;;;;2373448;56;21077;-47
2022/12/19 12:09:34;;;;;;;19.90;11.65;;;5.30;80.30;;;;;;2373748;56;21063;-48
2022/12/19 12:12:10;;;;;;;16.42;9.70;;;5.30;80.40;;;;;;2375289;56;21134;-49
2022/12/19 12:14:47;;;;;;;18.85;10.95;;;5.30;80.90;;;;;;2374859;56;21101;-48
2022/12/19 12:17:33;;;;;;;17.75;10.40;;;5.30;80.10;;;;;;2373764;56;21086;-50
2022/12/19 12:20:14;;;;;;;18.85;10.25;;;5.30;80.20;;;;;;2374056;56;21113;-48
2022/12/19 12:22:53;;;;;;;20.40;10.43;;;5.40;80.10;;;;;;2373289;56;21039;-47
2022/12/19 12:25:33;;;;;;;20.70;10.82;;;5.40;80.00;;;;;;2373385;56;21051;-52
2022/12/19 12:28:17;;;;;;;18.70;9.95;;;5.40;80.00;;;;;;2373088;56;21058;-49
2022/12/19 12:30:51;;;;;;;20.00;11.25;;;5.40;79.80;;;;;;2371309;56;21557;-48
2022/12/19 12:33:27;;;;;;;19.23;10.77;;;5.40;80.00;;;;;;2372124;56;21586;-49
2022/12/19 12:36:00;;;;;;;18.70;10.48;;;5.40;80.10;;;;;;2372027;56;21606;-49
2022/12/19 12:38:44;;;;;;;19.45;11.43;;;5.40;80.10;;;;;;2373459;56;21062;-47
2022/12/19 12:42:02;;;;;;;20.80;11.50;;;5.50;80.00;;;;;;2373497;56;21526;-47
2022/12/19 12:44:33;;;;;;;17.77;11.32;;;5.50;80.00;;;;;;2373570;56;21138;-51
2022/12/19 12:47:05;;;;;;;22.50;11.90;;;5.60;79.70;;;;;;2373060;56;21047;-47
2022/12/19 12:49:38;;;;;;;20.90;11.82;;;5.50;79.90;;;;;;2373302;56;21621;-47
2022/12/19 12:52:08;;;;;;;24.60;12.73;;;5.60;79.90;;;;;;2371735;56;21634;-48
2022/12/19 12:54:40;;;;;;;23.08;12.63;;;5.60;79.90;;;;;;2372949;56;21541;-48
2022/12/19 12:57:20;;;;;;;19.83;11.77;;;5.60;79.90;;;;;;2372632;56;21063;-48
2022/12/19 13:00:12;;;;;;;25.45;12.80;;;5.60;80.00;;;;;;2373186;56;22042;-48
2022/12/19 13:02:40;;;;;;;23.08;12.13;;;5.60;80.10;;;;;;2371972;56;21672;-49
2022/12/19 13:05:37;;;;;;;22.52;11.77;;;5.70;80.10;;;;;;2373723;56;21101;-48
2022/12/19 13:08:33;;;;;;;21.98;12.32;;;5.70;80.10;;;;;;2373049;56;21061;-47
2022/12/19 13:11:02;;;;;;;23.42;13.02;;;5.70;80.10;;;;;;2373933;56;21106;-47
2022/12/19 13:16:51;;;;;;;19.90;11.40;;;5.70;80.10;;;;;;2354906;56;22104;-49
2022/12/19 13:19:22;;;;;;;20.15;10.77;;;5.70;80.10;;;;;;2373745;56;21113;-48
2022/12/19 13:22:19;;;;;;;18.02;11.02;;;5.70;79.90;;;;;;2373784;56;21637;-50
2022/12/19 13:24:48;;;;;;;22.95;11.75;;;5.70;80.30;;;;;;2371770;56;21051;-49
2022/12/19 13:30:19;;;;;;;22.17;11.93;;;5.70;81.30;;;;;;2354262;57;22639;-50